Time;durP1;ratioP1;P1;durP2;ratioP2;P2;SDS_P1;SDS_P2;PMS_P1;PMS_P2;Temp;Humidity;BMP_temperature;BMP_pressure;BME280_temperature;BME280_humidity;BME280_pressure;Samples;Min_cycle;Max_cycle;Signal;HPM_P1;HPM_P2
2024/03/31 00:02:46;;;;;;;18.30;2.70;;;;;;;13.75;58.16;98790.45;129102;1285;128653;-64
2024/03/31 00:06:47;;;;;;;22.50;3.40;;;;;;;13.84;58.01;98797.63;128662;1291;114887;-62
2024/03/31 00:10:33;;;;;;;17.90;2.70;;;;;;;13.91;57.92;98797.41;128339;1274;114878;-65
2024/03/31 00:14:41;;;;;;;21.60;3.00;;;;;;;13.94;57.85;98787.76;124890;1275;114979;-62
2024/03/31 00:18:44;;;;;;;17.50;3.20;;;;;;;13.98;57.81;98781.17;128774;1289;114894;-62
2024/03/31 00:22:37;;;;;;;18.60;3.60;;;;;;;13.98;57.82;98775.73;128637;1294;114907;-64
2024/03/31 00:26:41;;;;;;;19.60;2.90;;;;;;;13.99;57.67;98776.59;127460;1285;126978;-63
2024/03/31 00:30:25;;;;;;;17.80;2.30;;;;;;;13.99;57.61;98771.91;127183;1288;114856;-63
2024/03/31 00:34:06;;;;;;;;;;;;;;;13.98;57.56;98774.52;126298;1291;114978;-63
2024/03/31 00:38:08;;;;;;;9.90;2.20;;;;;;;13.94;57.76;98771.05;126318;1310;115212;-63
2024/03/31 00:50:56;;;;;;;11.20;2.40;;;;;;;13.81;57.48;98774.96;125211;1304;653977;-62
2024/03/31 00:54:58;;;;;;;17.30;2.30;;;;;;;13.72;57.56;98771.39;127060;1287;128575;-62
2024/03/31 00:59:00;;;;;;;17.30;2.50;;;;;;;13.65;57.45;98774.68;125811;1296;114955;-63
2024/03/31 01:03:02;;;;;;;15.20;2.20;;;;;;;13.58;57.56;98774.92;121521;1306;5420689;-63
2024/03/31 01:07:03;;;;;;;10.20;2.10;;;;;;;13.49;57.71;98777.11;124584;1329;114927;-64
2024/03/31 01:15:25;;;;;;;18.70;3.00;;;;;;;13.32;57.70;98764.98;126400;1293;635536;-64
2024/03/31 01:19:07;;;;;;;13.60;2.60;;;;;;;13.19;57.71;98764.44;127297;1298;128255;-64
2024/03/31 01:23:11;;;;;;;20.30;2.80;;;;;;;13.06;58.01;98762.77;127492;1286;114953;-64
2024/03/31 01:27:18;;;;;;;13.30;2.20;;;;;;;12.92;58.16;98763.42;125959;1294;5499006;-62
2024/03/31 01:31:19;;;;;;;13.10;2.90;;;;;;;12.80;58.32;98769.30;125351;1316;114897;-63
2024/03/31 01:35:00;;;;;;;13.60;2.40;;;;;;;12.67;58.63;98770.34;125476;1302;130064;-63
2024/03/31 01:38:51;;;;;;;20.60;2.70;;;;;;;12.59;59.21;98763.30;125611;1302;114984;-63
2024/03/31 01:42:53;;;;;;;17.20;3.30;;;;;;;12.53;59.48;98757.71;125096;1321;115184;-64
2024/03/31 01:51:27;;;;;;;18.10;3.20;;;;;;;12.43;59.76;98754.60;125469;1312;638486;-63
2024/03/31 01:59:47;;;;;;;6.20;1.00;;;;;;;12.26;60.59;98768.36;126155;1293;114798;-62
2024/03/31 02:08:16;;;;;;;19.10;2.60;;;;;;;12.22;61.44;98777.46;125657;1299;638747;-63
2024/03/31 02:12:19;;;;;;;24.20;2.30;;;;;;;12.15;61.49;98773.33;128538;1289;128894;-63
2024/03/31 02:20:23;;;;;;;11.40;2.40;;;;;;;11.98;61.88;98758.05;124350;1276;5421136;-63
2024/03/31 02:24:32;;;;;;;20.40;2.80;;;;;;;11.83;61.82;98760.24;127897;1299;114903;-62
2024/03/31 02:28:31;;;;;;;;;;;;;;;;;;;;;
2024/03/31 02:32:31;;;;;;;;;;;;;;;;;;;;;
2024/03/31 02:36:33;;;;;;;14.40;1.70;;;;;;;11.53;62.71;98766.71;125386;1304;129610;-63
2024/03/31 02:45:06;;;;;;;21.50;2.50;;;;;;;11.60;63.59;98774.10;125535;1311;643553;-64
2024/03/31 02:53:13;;;;;;;15.00;2.20;;;;;;;11.62;63.61;98766.41;126797;1290;114858;-63
2024/03/31 02:56:54;;;;;;;15.00;3.50;;;;;;;11.60;64.52;98773.35;122132;1299;5429252;-63
2024/03/31 03:00:58;;;;;;;9.40;2.40;;;;;;;11.58;64.00;98772.11;125112;1320;114840;-63
2024/03/31 03:09:21;;;;;;;11.80;2.70;;;;;;;11.53;64.21;98751.90;126169;1296;637419;-63
2024/03/31 03:13:24;;;;;;;15.30;2.20;;;;;;;11.45;64.24;98739.67;127137;1306;128799;-64
2024/03/31 03:16:56;;;;;;;12.10;2.50;;;;;;;11.36;64.07;98732.33;126280;1312;114983;-63
2024/03/31 03:20:55;;;;;;;;;;;;;;;;;;;;;
2024/03/31 03:24:51;;;;;;;13.90;2.40;;;;;;;11.32;64.82;98726.36;121286;1309;114984;-62
2024/03/31 03:28:52;;;;;;;7.10;1.40;;;;;;;11.42;64.76;98732.56;124426;1327;114926;-63
2024/03/31 03:32:43;;;;;;;14.10;2.50;;;;;;;11.54;64.63;98740.52;124074;1311;114832;-63
2024/03/31 03:41:15;;;;;;;14.40;2.50;;;;;;;11.70;64.36;98743.02;125555;1308;640693;-62
2024/03/31 03:45:18;;;;;;;12.80;2.20;;;;;;;11.73;64.57;98733.92;127965;1300;128814;-63
2024/03/31 03:53:22;;;;;;;14.30;1.90;;;;;;;11.68;64.37;98729.81;122163;1299;5478368;-63
2024/03/31 04:01:37;;;;;;;;;;;;;;;;;;;;;
2024/03/31 04:05:24;;;;;;;14.20;2.40;;;;;;;11.53;64.30;98740.41;127749;1301;127791;-65
2024/03/31 04:09:11;;;;;;;15.70;2.60;;;;;;;11.47;64.81;98741.13;126826;1308;114948;-64
2024/03/31 04:13:37;;;;;;;16.40;2.70;;;;;;;11.41;65.24;98735.46;126611;1292;115409;-64
2024/03/31 04:17:06;;;;;;;16.90;2.60;;;;;;;11.37;65.18;98732.75;121501;1309;114963;-64
2024/03/31 04:24:40;;;;;;;14.30;2.20;;;;;;;11.35;65.34;98724.70;125927;1297;638563;-64
2024/03/31 04:28:44;;;;;;;11.70;2.20;;;;;;;11.34;65.16;98729.07;128622;1286;129068;-63
2024/03/31 04:32:38;;;;;;;17.80;3.40;;;;;;;11.39;65.88;98734.00;127273;1304;114862;-63
2024/03/31 04:36:55;;;;;;;10.50;1.70;;;;;;;11.47;65.63;98733.98;126506;1295;114891;-64
2024/03/31 04:43:43;;;;;;;13.40;2.60;;;;;;;11.56;65.73;98736.14;126074;1295;114893;-64
2024/03/31 04:47:45;;;;;;;12.00;1.90;;;;;;;11.59;65.43;98731.75;125465;1302;114869;-63
2024/03/31 04:51:46;;;;;;;14.20;2.80;;;;;;;11.63;65.76;98733.96;125052;1302;129833;-64
2024/03/31 05:00:04;;;;;;;13.50;2.10;;;;;;;11.79;65.65;98727.52;125667;1309;640520;-64
2024/03/31 05:03:48;;;;;;;16.40;2.10;;;;;;;11.82;65.67;98719.40;128505;1279;129665;-64
2024/03/31 05:07:39;;;;;;;21.40;2.70;;;;;;;11.85;65.52;98717.72;129107;1269;114905;-64
2024/03/31 05:11:42;;;;;;;10.20;2.30;;;;;;;11.87;65.61;98717.55;128982;1269;114825;-63
2024/03/31 05:15:44;;;;;;;17.60;2.30;;;;;;;11.90;65.65;98720.36;124390;1299;114868;-63
2024/03/31 05:19:26;;;;;;;6.80;1.80;;;;;;;11.94;65.42;98725.23;126465;1292;114943;-64
2024/03/31 05:32:02;;;;;;;17.90;2.90;;;;;;;12.23;65.07;98714.17;126088;1308;637566;-63
2024/03/31 05:35:48;;;;;;;11.20;2.40;;;;;;;12.33;65.07;98711.35;127448;1286;128373;-63
2024/03/31 05:39:50;;;;;;;9.60;3.40;;;;;;;12.43;64.92;98712.73;126941;1307;115112;-62
2024/03/31 05:43:54;;;;;;;22.20;2.40;;;;;;;12.53;64.96;98711.68;122140;1290;5442331;-63
2024/03/31 05:47:38;;;;;;;17.30;3.20;;;;;;;12.65;64.84;98704.66;124803;1305;114972;-63
2024/03/31 05:51:40;;;;;;;14.90;2.00;;;;;;;12.76;64.64;98703.52;124655;1328;114926;-63
2024/03/31 06:04:17;;;;;;;14.50;2.10;;;;;;;13.27;63.86;98679.16;128399;1295;128412;-63
2024/03/31 06:12:22;;;;;;;10.20;2.10;;;;;;;13.71;63.45;98689.81;123082;1306;5404198;-63
2024/03/31 06:16:15;;;;;;;;;;;;;;;;;;;;;
2024/03/31 06:24:36;;;;;;;;;;;;;;;;;;;;;
2024/03/31 06:28:40;;;;;;;23.00;2.90;;;;;;;15.10;61.67;98682.07;128317;1287;129012;-63
2024/03/31 06:40:39;;;;;;;13.80;2.40;;;;;;;15.84;60.32;98682.75;127336;1283;114899;-64
2024/03/31 06:44:41;;;;;;;10.40;1.50;;;;;;;16.04;59.78;98683.76;125909;1315;115176;-63
2024/03/31 06:48:26;;;;;;;;;;;;;;;;;;;;;
2024/03/31 06:52:27;;;;;;;;;;;;;;;;;;;;;
2024/03/31 06:56:29;;;;;;;17.50;3.80;;;;;;;17.50;58.58;98669.47;124679;1319;115073;-64
2024/03/31 07:05:30;;;;;;;16.70;3.60;;;;;;;18.41;56.91;98662.71;125825;1299;638604;-62
2024/03/31 07:09:02;;;;;;;22.30;2.70;;;;;;;18.77;56.14;98657.73;127752;1301;128606;-63
2024/03/31 07:13:11;;;;;;;17.70;2.70;;;;;;;18.97;55.37;98658.05;127290;1286;116212;-64
2024/03/31 07:17:15;;;;;;;20.10;3.00;;;;;;;19.15;54.55;98658.87;122919;1295;5391034;-63
2024/03/31 07:20:59;;;;;;;25.20;3.90;;;;;;;19.27;54.43;98648.09;125621;1299;114994;-63
2024/03/31 07:24:40;;;;;;;;;;;;;;;19.54;54.04;98643.03;125322;1322;114994;-64
2024/03/31 07:28:31;;;;;;;;;;;;;;;;;;;;;
2024/03/31 07:36:59;;;;;;;20.10;2.70;;;;;;;20.41;52.06;98641.27;125932;1301;638257;-64
2024/03/31 07:41:01;;;;;;;18.20;2.70;;;;;;;20.50;51.41;98646.34;128126;1291;129171;-65
2024/03/31 07:45:05;;;;;;;17.30;2.70;;;;;;;20.64;51.13;98643.41;126649;1296;114953;-64
2024/03/31 07:48:57;;;;;;;;;;;;;;;;;;;;;
2024/03/31 07:53:03;;;;;;;24.20;3.00;;;;;;;21.26;49.29;98615.64;125159;1312;115285;-63
2024/03/31 08:09:22;;;;;;;;;;;;;;;;;;;;;
2024/03/31 08:17:25;;;;;;;20.60;2.90;;;;;;;22.96;45.59;98597.91;127083;1286;114958;-63
2024/03/31 08:21:26;;;;;;;17.20;3.00;;;;;;;23.08;45.52;98591.89;126111;1312;114952;-64
2024/03/31 08:25:28;;;;;;;22.30;2.80;;;;;;;23.13;44.84;98596.86;125786;1299;130700;-67
2024/03/31 08:34:18;;;;;;;27.40;3.90;;;;;;;23.32;44.46;98580.98;126068;1295;638665;-67
2024/03/31 08:54:24;;;;;;;20.40;2.70;;;;;;;23.88;42.22;98574.50;126384;1300;114809;-64
2024/03/31 08:58:25;;;;;;;23.90;3.00;;;;;;;24.17;41.46;98577.09;125661;1306;128256;-63
2024/03/31 09:07:02;;;;;;;21.00;2.90;;;;;;;24.59;40.34;98571.88;125818;1301;639133;-65
2024/03/31 09:11:04;;;;;;;17.60;2.50;;;;;;;24.77;40.58;98575.44;128194;1282;120228;-65
2024/03/31 09:15:07;;;;;;;15.60;2.50;;;;;;;24.96;39.65;98569.73;127490;1305;114964;-65
2024/03/31 09:19:08;;;;;;;24.00;3.20;;;;;;;24.98;38.83;98566.36;122428;1293;5501282;-63
2024/03/31 09:23:10;;;;;;;19.70;2.70;;;;;;;24.99;39.00;98568.13;125641;1301;114942;-63
2024/03/31 09:27:11;;;;;;;24.40;3.30;;;;;;;25.05;38.25;98575.27;125407;1326;115069;-63
2024/03/31 09:35:45;;;;;;;23.00;3.30;;;;;;;25.10;38.09;98594.58;126247;1298;636836;-64
2024/03/31 09:39:46;;;;;;;21.80;3.10;;;;;;;25.09;37.54;98591.51;127925;1282;121182;-65
2024/03/31 09:43:48;;;;;;;25.30;3.50;;;;;;;25.01;37.12;98584.65;127290;1289;114818;-64
2024/03/31 09:48:29;;;;;;;25.00;3.80;;;;;;;24.93;36.39;98577.21;122676;1293;5422155;-65
2024/03/31 10:00:57;;;;;;;25.70;3.40;;;;;;;24.86;36.98;98583.62;125472;1301;637824;-64
2024/03/31 10:05:03;;;;;;;27.70;3.40;;;;;;;24.96;37.17;98585.71;127699;1279;120306;-64
2024/03/31 10:08:48;;;;;;;25.40;3.30;;;;;;;25.08;36.97;98578.40;127283;1287;115289;-64
2024/03/31 10:12:56;;;;;;;26.50;4.60;;;;;;;25.22;36.88;98568.17;123105;1292;5436769;-65
2024/03/31 10:16:39;;;;;;;27.90;4.00;;;;;;;25.20;36.52;98564.88;126648;1293;114967;-62
2024/03/31 10:20:24;;;;;;;27.40;4.30;;;;;;;25.12;36.34;98565.08;125726;1296;115114;-65
2024/03/31 10:24:26;;;;;;;29.30;3.90;;;;;;;25.04;36.13;98565.13;125311;1325;120242;-64
2024/03/31 10:28:07;;;;;;;34.90;4.20;;;;;;;25.01;35.88;98562.73;124560;1311;115099;-64
2024/03/31 10:36:42;;;;;;;36.10;4.90;;;;;;;25.22;35.63;98560.24;125883;1299;636618;-64
2024/03/31 10:40:42;;;;;;;27.10;5.30;;;;;;;25.36;35.90;98559.95;127614;1282;120173;-64
2024/03/31 10:44:45;;;;;;;31.30;4.20;;;;;;;25.62;35.50;98562.51;126523;1308;116429;-64
2024/03/31 10:48:46;;;;;;;38.90;4.60;;;;;;;25.77;34.85;98564.02;122782;1290;5520178;-64
2024/03/31 10:52:46;;;;;;;30.30;4.10;;;;;;;25.85;34.81;98560.91;126186;1302;116237;-64
2024/03/31 10:56:48;;;;;;;37.20;4.70;;;;;;;25.90;34.74;98550.01;125837;1304;114818;-64
2024/03/31 11:00:49;;;;;;;31.90;4.90;;;;;;;25.93;34.56;98549.02;125714;1305;114824;-64
2024/03/31 11:04:56;;;;;;;32.70;4.60;;;;;;;25.92;34.44;98538.93;124746;1313;119568;-65
2024/03/31 11:13:35;;;;;;;46.20;5.40;;;;;;;25.94;34.07;98525.66;125398;1302;638668;-64
2024/03/31 11:17:38;;;;;;;42.30;5.10;;;;;;;25.84;33.95;98527.04;127005;1289;119960;-63
2024/03/31 11:21:57;;;;;;;;;;;;;;;;;;;;;
2024/03/31 11:25:41;;;;;;;41.60;5.30;;;;;;;25.68;34.12;98523.54;120753;1329;5400281;-64
2024/03/31 11:34:13;;;;;;;39.40;5.10;;;;;;;25.61;34.11;98515.64;126826;1292;637247;-64
2024/03/31 11:38:08;;;;;;;;;;;;;;;;;;;;;
2024/03/31 11:46:19;;;;;;;33.40;3.70;;;;;;;25.33;34.21;98524.28;123476;1287;5459150;-64
2024/03/31 11:50:21;;;;;;;40.30;4.80;;;;;;;25.30;34.34;98522.24;126214;1297;114895;-64
2024/03/31 11:54:22;;;;;;;33.40;4.20;;;;;;;25.24;33.98;98528.62;125615;1323;115081;-65
2024/03/31 11:58:23;;;;;;;33.30;4.80;;;;;;;25.13;33.94;98529.23;124751;1328;120886;-65
2024/03/31 12:06:41;;;;;;;39.40;5.70;;;;;;;24.98;33.99;98527.28;125842;1301;638727;-65
2024/03/31 12:10:36;;;;;;;33.70;4.90;;;;;;;24.86;34.28;98532.63;127161;1290;127616;-64
2024/03/31 12:14:41;;;;;;;28.30;5.20;;;;;;;24.87;34.56;98538.27;126835;1293;114995;-65
2024/03/31 12:22:32;;;;;;;;;;;;;;;;;;;;;
2024/03/31 12:26:35;;;;;;;33.60;6.20;;;;;;;24.63;34.18;98543.86;125308;1306;116618;-65
2024/03/31 12:43:41;;;;;;;40.50;5.50;;;;;;;24.96;34.23;98532.05;126041;1310;636863;-65
2024/03/31 12:47:43;;;;;;;36.70;4.70;;;;;;;25.01;34.08;98532.38;127013;1290;119488;-65
2024/03/31 12:51:50;;;;;;;33.70;5.50;;;;;;;25.00;34.35;98532.09;126559;1298;114882;-64
2024/03/31 12:55:36;;;;;;;25.20;4.30;;;;;;;24.99;34.12;98532.55;122476;1295;5413098;-65
2024/03/31 12:59:40;;;;;;;39.30;5.00;;;;;;;24.93;34.07;98532.83;126572;1290;114869;-64
2024/03/31 13:03:45;;;;;;;36.90;5.50;;;;;;;24.86;34.19;98533.73;125874;1311;114998;-65
2024/03/31 13:07:46;;;;;;;36.30;5.30;;;;;;;24.76;33.98;98536.94;125425;1315;114881;-65
2024/03/31 13:15:54;;;;;;;38.70;6.00;;;;;;;24.65;34.05;98532.83;125859;1300;640563;-66
2024/03/31 13:19:48;;;;;;;;;;;;;;;;;;;;;
2024/03/31 13:23:53;;;;;;;45.50;5.30;;;;;;;24.48;34.28;98539.33;127565;1289;114799;-65
2024/03/31 13:28:19;;;;;;;32.90;5.40;;;;;;;24.46;34.54;98537.08;126873;1290;114940;-65
2024/03/31 13:31:57;;;;;;;37.00;4.90;;;;;;;24.45;34.56;98541.04;121571;1307;115357;-64
2024/03/31 13:35:50;;;;;;;30.00;5.60;;;;;;;24.41;34.43;98543.23;124106;1336;114919;-64
2024/03/31 13:47:56;;;;;;;39.10;5.40;;;;;;;24.47;34.92;98550.11;127910;1284;128874;-64
2024/03/31 13:51:59;;;;;;;30.40;5.00;;;;;;;24.45;34.89;98546.98;126879;1290;114846;-64
2024/03/31 13:59:10;;;;;;;34.70;5.60;;;;;;;24.38;34.99;98549.42;126436;1313;114892;-64
2024/03/31 14:03:11;;;;;;;42.30;6.10;;;;;;;24.31;34.95;98551.14;126183;1299;114919;-65
2024/03/31 14:07:13;;;;;;;38.90;5.80;;;;;;;24.20;35.05;98553.82;125906;1300;116134;-63
2024/03/31 14:19:42;;;;;;;34.40;4.90;;;;;;;23.98;35.62;98576.96;129172;1271;128555;-64
2024/03/31 14:23:44;;;;;;;33.50;5.20;;;;;;;23.87;35.44;98574.84;127220;1286;114980;-64
2024/03/31 14:27:47;;;;;;;46.60;6.80;;;;;;;23.69;35.65;98577.59;122702;1292;5459195;-64
2024/03/31 14:31:48;;;;;;;36.80;5.10;;;;;;;23.54;35.96;98560.28;124966;1309;114950;-65
2024/03/31 14:39:56;;;;;;;38.10;5.40;;;;;;;23.28;36.42;98545.98;126426;1292;635224;-64
2024/03/31 14:43:33;;;;;;;;;;;;;;;;;;;;;
2024/03/31 14:47:37;;;;;;;31.10;4.80;;;;;;;23.10;36.42;98521.66;128127;1280;115126;-65
2024/03/31 14:51:15;;;;;;;;;;;;;;;;;;;;;
2024/03/31 14:55:17;;;;;;;28.50;4.20;;;;;;;22.96;36.78;98507.96;122137;1295;115759;-65
2024/03/31 14:58:59;;;;;;;26.40;3.60;;;;;;;22.86;36.85;98499.83;124790;1327;114912;-64
2024/03/31 15:07:01;;;;;;;38.20;6.00;;;;;;;22.67;36.88;98476.79;126473;1290;637368;-65
2024/03/31 15:10:40;;;;;;;40.20;4.80;;;;;;;22.57;37.16;98471.39;129190;1264;128713;-65
2024/03/31 15:14:44;;;;;;;31.00;5.40;;;;;;;22.53;37.38;98473.88;128901;1293;114857;-63
2024/03/31 15:18:45;;;;;;;;;;;;;;;;;;;;;
2024/03/31 15:22:48;;;;;;;34.60;4.80;;;;;;;22.50;37.62;98486.33;122879;1310;115282;-65
2024/03/31 15:26:50;;;;;;;25.60;4.20;;;;;;;22.53;37.74;98494.48;126021;1298;114868;-64
2024/03/31 15:30:50;;;;;;;;;;;;;;;;;;;;;
2024/03/31 15:34:51;;;;;;;;;;;;;;;;;;;;;
2024/03/31 15:43:06;;;;;;;38.20;5.50;;;;;;;22.50;37.94;98548.80;125980;1294;639569;-65
2024/03/31 15:47:04;;;;;;;38.60;5.40;;;;;;;22.35;38.09;98551.45;127435;1286;128998;-64
2024/03/31 15:50:45;;;;;;;31.60;4.40;;;;;;;22.19;38.13;98556.95;126832;1309;115250;-65
2024/03/31 15:58:13;;;;;;;28.70;4.50;;;;;;;21.88;38.76;98574.80;126076;1298;114825;-65
2024/03/31 16:02:15;;;;;;;31.30;5.80;;;;;;;21.73;38.68;98579.45;126009;1302;114876;-64
2024/03/31 16:06:16;;;;;;;37.90;5.70;;;;;;;21.54;39.08;98576.38;125657;1315;131808;-65
2024/03/31 16:10:18;;;;;;;34.10;4.60;;;;;;;21.40;39.23;98584.23;125320;1307;114975;-64
2024/03/31 16:17:58;;;;;;;;;;;;;;;;;;;;;
2024/03/31 16:22:02;;;;;;;34.60;5.00;;;;;;;20.98;39.78;98591.39;128788;1278;128930;-66
2024/03/31 16:26:10;;;;;;;26.90;5.60;;;;;;;20.82;39.97;98590.19;126869;1293;114950;-64
2024/03/31 16:38:26;;;;;;;;;;;;;;;;;;;;;
2024/03/31 16:42:30;;;;;;;31.70;5.70;;;;;;;20.23;41.10;98605.60;128233;1282;128527;-64
2024/03/31 16:46:37;;;;;;;29.40;4.20;;;;;;;20.06;41.57;98592.43;126774;1293;114918;-64
2024/03/31 16:50:29;;;;;;;;;;;;;;;;;;;;;
2024/03/31 16:58:26;;;;;;;;;;;;;;;;;;;;;
2024/03/31 17:02:12;;;;;;;27.20;6.00;;;;;;;19.46;42.93;98585.60;124215;1316;115025;-64
2024/03/31 17:14:49;;;;;;;38.30;6.30;;;;;;;19.02;43.93;98590.09;127027;1300;129096;-63
2024/03/31 17:18:32;;;;;;;35.10;5.00;;;;;;;18.84;44.25;98590.20;125372;1312;115026;-63
2024/03/31 17:22:34;;;;;;;36.00;5.50;;;;;;;18.69;44.59;98591.34;121544;1303;5405881;-64
2024/03/31 17:26:15;;;;;;;;;;;;;;;18.51;44.76;98589.72;125019;1327;115019;-64
2024/03/31 17:34:48;;;;;;;43.80;6.10;;;;;;;18.16;45.53;98584.98;126491;1290;639136;-63
2024/03/31 17:42:48;;;;;;;34.60;4.50;;;;;;;17.69;46.31;98580.59;127803;1301;114839;-64
2024/03/31 17:46:48;;;;;;;32.00;4.90;;;;;;;17.47;46.61;98578.96;127125;1283;456916;-64
2024/03/31 17:50:33;;;;;;;30.40;4.70;;;;;;;17.29;46.85;98579.26;126316;1309;114903;-63
2024/03/31 17:54:35;;;;;;;26.00;5.80;;;;;;;17.11;47.32;98583.61;126074;1298;114834;-64
2024/03/31 18:03:02;;;;;;;30.70;6.40;;;;;;;16.84;47.90;98582.58;125801;1311;640423;-65
2024/03/31 18:07:06;;;;;;;36.40;6.20;;;;;;;16.70;48.11;98577.58;127789;1302;128532;-64
2024/03/31 18:10:59;;;;;;;;;;;;;;;;;;;;;
2024/03/31 18:23:21;;;;;;;31.40;7.90;;;;;;;16.26;49.55;98568.42;126201;1298;636061;-65
2024/03/31 18:27:25;;;;;;;35.40;6.00;;;;;;;16.14;49.77;98570.55;128595;1291;128885;-65
2024/03/31 18:31:27;;;;;;;23.50;5.00;;;;;;;16.06;50.04;98577.63;128333;1287;114958;-65
2024/03/31 18:35:21;;;;;;;;;;;;;;;;;;;;;
2024/03/31 18:39:26;;;;;;;31.90;5.10;;;;;;;15.98;50.37;98584.27;126083;1313;114909;-64
2024/03/31 18:43:28;;;;;;;28.70;4.80;;;;;;;15.92;50.54;98584.42;125491;1302;114814;-64
2024/03/31 18:51:41;;;;;;;31.20;4.90;;;;;;;15.82;50.68;98588.80;125771;1297;637341;-64
2024/03/31 18:59:48;;;;;;;24.20;4.40;;;;;;;15.71;50.95;98590.27;127660;1288;114932;-64
2024/03/31 19:03:46;;;;;;;26.90;4.90;;;;;;;15.64;51.21;98586.27;123383;1294;5455444;-64
2024/03/31 19:07:46;;;;;;;26.50;4.70;;;;;;;15.58;51.41;98586.17;126340;1312;114886;-64
2024/03/31 19:11:47;;;;;;;12.50;2.70;;;;;;;15.53;51.58;98585.39;125879;1320;116637;-64
2024/03/31 19:15:49;;;;;;;33.40;5.60;;;;;;;15.50;51.81;98587.23;125007;1309;128931;-64
2024/03/31 19:24:24;;;;;;;36.60;5.30;;;;;;;15.48;52.18;98571.69;125731;1301;638852;-66
2024/03/31 19:28:29;;;;;;;34.10;5.10;;;;;;;15.48;52.14;98578.63;128682;1276;128821;-65
2024/03/31 19:32:41;;;;;;;;;;;;;;;;;;;;;
2024/03/31 19:36:24;;;;;;;29.10;5.80;;;;;;;15.45;52.38;98584.30;122519;1296;5458015;-64
2024/03/31 19:40:27;;;;;;;29.40;4.50;;;;;;;15.43;52.38;98582.92;126174;1299;114913;-64
2024/03/31 19:44:28;;;;;;;27.30;4.60;;;;;;;15.38;52.44;98590.48;124801;1328;115008;-63
2024/03/31 19:48:09;;;;;;;34.70;4.50;;;;;;;15.30;52.60;98597.98;123672;1336;114999;-64
2024/03/31 19:56:43;;;;;;;30.20;5.70;;;;;;;15.19;52.72;98601.09;125627;1296;638596;-65
2024/03/31 20:00:49;;;;;;;27.80;5.60;;;;;;;15.09;53.02;98609.08;127995;1280;128887;-64
2024/03/31 20:04:52;;;;;;;28.20;5.20;;;;;;;14.99;53.00;98614.13;127470;1286;115042;-64
2024/03/31 20:08:54;;;;;;;26.90;5.30;;;;;;;14.91;53.42;98619.41;122136;1316;5497362;-64
2024/03/31 20:17:24;;;;;;;32.40;6.10;;;;;;;14.71;53.99;98620.46;126261;1295;638506;-64
2024/03/31 20:21:31;;;;;;;26.30;4.70;;;;;;;14.57;54.01;98623.58;128368;1277;129710;-64
2024/03/31 20:25:32;;;;;;;31.90;5.30;;;;;;;14.47;54.19;98631.88;127391;1289;115025;-64
2024/03/31 20:29:33;;;;;;;33.40;5.50;;;;;;;14.36;54.54;98636.49;121776;1293;6514334;-64
2024/03/31 20:33:35;;;;;;;25.40;4.80;;;;;;;14.24;54.76;98637.52;125638;1305;114968;-64
2024/03/31 20:41:52;;;;;;;37.50;6.00;;;;;;;14.03;55.23;98637.14;126099;1298;642280;-64
2024/03/31 20:45:55;;;;;;;27.70;4.40;;;;;;;13.91;55.35;98639.48;128215;1281;128795;-65
2024/03/31 20:49:39;;;;;;;;;;;;;;;13.79;55.64;98642.97;126658;1293;114855;-63
2024/03/31 20:57:40;;;;;;;18.60;4.30;;;;;;;13.56;56.17;98631.59;121452;1321;115099;-64
2024/03/31 21:01:44;;;;;;;25.70;5.70;;;;;;;13.45;56.59;98629.16;125079;1325;114910;-64
2024/03/31 21:10:19;;;;;;;33.80;5.60;;;;;;;13.22;57.15;98612.14;125554;1300;638684;-63
2024/03/31 21:14:23;;;;;;;34.90;5.10;;;;;;;13.06;57.62;98604.71;128426;1277;127689;-63
2024/03/31 21:18:25;;;;;;;32.20;4.70;;;;;;;12.98;57.59;98601.50;126519;1309;115198;-64
2024/03/31 21:22:30;;;;;;;38.70;5.00;;;;;;;12.91;58.14;98597.77;122377;1297;5440505;-64
2024/03/31 21:30:15;;;;;;;;;;;;;;;12.81;58.48;98581.84;125449;1322;114905;-64
2024/03/31 21:34:05;;;;;;;;;;;;;;;;;;;;;
2024/03/31 21:42:36;;;;;;;32.20;5.50;;;;;;;12.78;58.99;98565.59;125570;1301;638717;-64
2024/03/31 21:46:39;;;;;;;21.70;5.00;;;;;;;12.76;58.88;98571.46;127075;1289;129233;-64
2024/03/31 21:54:20;;;;;;;24.60;4.60;;;;;;;12.74;59.25;98566.43;121991;1301;5437183;-63
2024/03/31 21:58:09;;;;;;;25.60;4.40;;;;;;;12.73;59.25;98567.65;125955;1298;115282;-62
2024/03/31 22:06:13;;;;;;;29.80;4.00;;;;;;;12.68;59.53;98566.80;124504;1311;127738;-65
2024/03/31 22:14:47;;;;;;;30.30;5.00;;;;;;;12.62;59.84;98551.13;125539;1301;638543;-65
2024/03/31 22:18:50;;;;;;;25.50;6.70;;;;;;;12.55;59.84;98550.34;128227;1276;129040;-64
2024/03/31 22:22:50;;;;;;;;;;;;;;;;;;;;;
2024/03/31 22:26:22;;;;;;;26.80;4.10;;;;;;;12.36;60.36;98552.84;123224;1288;5454273;-63
2024/03/31 22:30:30;;;;;;;17.00;4.00;;;;;;;12.27;60.37;98553.77;126800;1308;114962;-67
2024/03/31 22:34:31;;;;;;;26.10;5.00;;;;;;;12.19;61.09;98559.18;126030;1314;114798;-64
2024/03/31 22:38:33;;;;;;;32.00;5.40;;;;;;;12.10;61.15;98561.27;125397;1318;114955;-63
2024/03/31 22:42:33;;;;;;;34.20;5.60;;;;;;;12.00;61.28;98565.33;124960;1305;128647;-65
2024/03/31 22:51:11;;;;;;;34.50;6.30;;;;;;;11.89;61.88;98577.67;125586;1296;638060;-64
2024/03/31 22:54:57;;;;;;;24.00;5.40;;;;;;;11.79;61.66;98583.03;127830;1300;128940;-64
2024/03/31 23:03:03;;;;;;;27.00;6.00;;;;;;;11.57;62.49;98588.49;123228;1281;6419832;-65
2024/03/31 23:07:04;;;;;;;30.20;5.80;;;;;;;11.46;62.43;98596.35;125905;1317;114969;-65
2024/03/31 23:10:48;;;;;;;28.30;7.00;;;;;;;11.37;62.67;98595.81;125369;1299;114965;-68
2024/03/31 23:14:50;;;;;;;27.50;5.30;;;;;;;11.32;63.46;98597.34;125087;1325;114881;-63
2024/03/31 23:27:27;;;;;;;24.70;6.80;;;;;;;11.21;64.07;98579.27;128003;1297;129447;-62
2024/03/31 23:35:20;;;;;;;28.30;5.20;;;;;;;11.13;64.61;98568.11;121492;1302;5527044;-63
2024/03/31 23:43:11;;;;;;;35.10;7.90;;;;;;;11.08;64.67;98567.60;123786;1317;114928;-63
2024/03/31 23:55:49;;;;;;;27.90;5.90;;;;;;;10.97;65.00;98584.21;127648;1302;127913;-64
2024/03/31 23:59:44;;;;;;;;;;;;;;;;;;;;;
